createdAt,value
2023-04-17T00:00:30.785Z,10.28
2023-04-17T00:02:58.484Z,10.36
2023-04-17T00:05:26.489Z,10.41
2023-04-17T00:07:54.276Z,10.39
2023-04-17T00:10:21.968Z,10.36
2023-04-17T00:12:49.416Z,10.36
2023-04-17T00:15:18.344Z,10.37
2023-04-17T00:17:45.907Z,10.32
2023-04-17T00:20:13.618Z,10.31
2023-04-17T00:22:41.154Z,10.27
2023-04-17T00:25:12.731Z,10.30
2023-04-17T00:27:40.325Z,10.26
2023-04-17T00:30:08.941Z,10.19
2023-04-17T00:32:37.864Z,10.24
2023-04-17T00:35:06.028Z,10.18
2023-04-17T00:37:33.483Z,10.13
2023-04-17T00:40:00.946Z,10.05
2023-04-17T00:42:28.684Z,10.03
2023-04-17T00:44:56.605Z,10.25
2023-04-17T00:47:26.206Z,10.14
2023-04-17T00:49:55.047Z,10.12
2023-04-17T00:52:29.293Z,10.16
2023-04-17T00:54:56.919Z,10.20
2023-04-17T00:57:25.096Z,10.23
2023-04-17T00:59:52.650Z,10.26
2023-04-17T01:02:20.276Z,10.23
2023-04-17T01:04:47.806Z,10.23
2023-04-17T01:07:16.735Z,10.04
2023-04-17T01:09:44.272Z,9.99
2023-04-17T01:12:19.435Z,10.09
2023-04-17T01:14:47.076Z,10.16
2023-04-17T01:17:15.218Z,10.14
2023-04-17T01:19:43.094Z,10.22
2023-04-17T01:22:10.659Z,10.23
2023-04-17T01:24:39.507Z,10.23
2023-04-17T01:27:07.682Z,10.16
2023-04-17T01:29:35.357Z,10.04
2023-04-17T01:32:02.979Z,10.23
2023-04-17T01:34:30.435Z,10.14
2023-04-17T01:36:57.907Z,10.21
2023-04-17T01:39:25.438Z,10.24
2023-04-17T01:41:54.327Z,10.36
2023-04-17T01:44:22.082Z,10.35
2023-04-17T01:46:49.517Z,10.36
2023-04-17T01:49:17.101Z,10.29
2023-04-17T01:51:44.561Z,10.15
2023-04-17T01:54:12.050Z,10.23
2023-04-17T01:56:39.488Z,10.24
2023-04-17T01:59:08.343Z,10.24
2023-04-17T02:01:36.729Z,10.25
2023-04-17T02:04:04.658Z,10.19
2023-04-17T02:06:32.560Z,10.04
2023-04-17T02:09:00.185Z,10.02
2023-04-17T02:11:27.627Z,10.18
2023-04-17T02:13:55.093Z,10.22
2023-04-17T02:16:24.059Z,10.18
2023-04-17T02:18:52.268Z,10.11
2023-04-17T02:21:19.730Z,10.06
2023-04-17T02:23:47.238Z,10.00
2023-04-17T02:26:15.020Z,10.01
2023-04-17T02:28:44.755Z,10.01
2023-04-17T02:31:12.945Z,9.94
2023-04-17T02:33:41.925Z,9.94
2023-04-17T02:36:10.052Z,9.90
2023-04-17T02:38:37.730Z,9.92
2023-04-17T02:41:05.982Z,9.88
2023-04-17T02:43:33.503Z,9.95
2023-04-17T02:46:01.355Z,9.95
2023-04-17T02:48:28.930Z,9.95
2023-04-17T02:50:57.775Z,9.91
2023-04-17T02:53:25.215Z,9.86
2023-04-17T02:55:52.673Z,9.92
2023-04-17T02:58:20.122Z,9.92
2023-04-17T03:00:47.755Z,9.83
2023-04-17T03:03:15.558Z,9.86
2023-04-17T03:05:43.178Z,9.75
2023-04-17T03:08:11.981Z,9.80
2023-04-17T03:10:39.454Z,9.75
2023-04-17T03:13:06.879Z,9.68
2023-04-17T03:15:35.089Z,9.64
2023-04-17T03:18:02.636Z,9.74
2023-04-17T03:20:30.202Z,9.71
2023-04-17T03:22:57.629Z,9.70
2023-04-17T03:25:26.447Z,9.70
2023-04-17T03:27:53.915Z,9.78
2023-04-17T03:30:21.418Z,9.83
2023-04-17T03:32:48.967Z,9.80
2023-04-17T03:35:16.534Z,9.85
2023-04-17T03:37:44.094Z,9.85
2023-04-17T03:40:11.959Z,9.75
2023-04-17T03:42:40.764Z,9.78
2023-04-17T03:45:09.746Z,9.81
2023-04-17T03:47:37.212Z,9.70
2023-04-17T03:50:05.318Z,9.70
2023-04-17T03:52:32.750Z,9.62
2023-04-17T03:55:00.241Z,9.69
2023-04-17T03:57:27.716Z,9.60
2023-04-17T03:59:56.498Z,9.61
2023-04-17T04:02:24.162Z,9.60
2023-04-17T04:04:51.886Z,9.58
2023-04-17T04:07:19.388Z,9.53
2023-04-17T04:09:46.858Z,9.48
2023-04-17T04:12:14.340Z,9.49
2023-04-17T04:14:42.214Z,9.45
2023-04-17T04:17:11.256Z,9.40
2023-04-17T04:19:38.718Z,9.36
2023-04-17T04:22:06.951Z,9.41
2023-04-17T04:24:35.198Z,9.29
2023-04-17T04:27:05.063Z,9.31
2023-04-17T04:29:32.924Z,9.26
2023-04-17T04:32:01.083Z,9.24
2023-04-17T04:38:15.419Z,9.14
2023-04-17T04:40:43.904Z,9.15
2023-04-17T04:43:11.374Z,9.03
2023-04-17T04:45:38.896Z,9.07
2023-04-17T04:48:06.373Z,9.08
2023-04-17T04:50:33.828Z,9.07
2023-04-17T04:53:01.485Z,9.14
2023-04-17T04:55:30.540Z,9.16
2023-04-17T04:57:58.146Z,9.13
2023-04-17T05:00:26.266Z,9.21
2023-04-17T05:02:53.792Z,9.16
2023-04-17T05:05:21.826Z,9.13
2023-04-17T05:07:49.309Z,8.96
2023-04-17T05:10:17.068Z,9.06
2023-04-17T05:12:45.852Z,9.10
2023-04-17T05:15:13.518Z,9.11
2023-04-17T05:17:41.857Z,9.09
2023-04-17T05:20:12.098Z,9.08
2023-04-17T05:22:39.571Z,9.11
2023-04-17T05:25:07.673Z,9.05
2023-04-17T05:27:35.253Z,9.05
2023-04-17T05:30:04.166Z,9.04
2023-04-17T05:32:31.726Z,8.95
2023-04-17T05:34:59.227Z,8.87
2023-04-17T05:37:26.695Z,8.83
2023-04-17T05:39:54.123Z,8.98
2023-04-17T05:42:21.586Z,9.05
2023-04-17T05:44:49.125Z,9.06
2023-04-17T05:47:17.927Z,9.05
2023-04-17T05:49:45.616Z,9.04
2023-04-17T05:52:13.052Z,8.98
2023-04-17T05:54:40.535Z,9.05
2023-04-17T05:57:08.010Z,9.01
2023-04-17T05:59:36.377Z,8.97
2023-04-17T06:02:04.778Z,9.04
2023-04-17T06:04:33.989Z,9.30
2023-04-17T06:07:03.054Z,9.30
2023-04-17T06:09:30.502Z,9.46
2023-04-17T06:11:59.011Z,9.51
2023-04-17T06:14:26.462Z,9.52
2023-04-17T06:16:53.934Z,9.53
2023-04-17T06:19:22.267Z,9.57
2023-04-17T06:21:51.168Z,9.60
2023-04-17T06:24:18.953Z,9.67
2023-04-17T06:26:46.495Z,9.69
2023-04-17T06:29:15.878Z,9.68
2023-04-17T06:31:45.313Z,9.67
2023-04-17T06:34:12.811Z,9.75
2023-04-17T06:36:41.033Z,9.80
2023-04-17T06:39:09.938Z,9.85
2023-04-17T06:41:37.549Z,9.86
2023-04-17T06:44:05.096Z,9.83
2023-04-17T06:46:32.693Z,9.92
2023-04-17T06:49:00.171Z,9.93
2023-04-17T06:51:29.093Z,9.98
2023-04-17T06:53:56.524Z,10.02
2023-04-17T06:56:25.343Z,10.09
2023-04-17T06:58:53.244Z,10.15
2023-04-17T07:01:21.160Z,10.24
2023-04-17T07:03:49.101Z,10.29
2023-04-17T07:06:17.005Z,10.27
2023-04-17T07:08:44.426Z,10.33
2023-04-17T07:11:11.904Z,10.38
2023-04-17T07:13:40.691Z,10.40
2023-04-17T07:16:08.760Z,10.32
2023-04-17T07:18:36.226Z,10.28
2023-04-17T07:21:03.729Z,10.27
2023-04-17T07:23:31.302Z,10.36
2023-04-17T07:25:58.766Z,10.41
2023-04-17T07:28:26.371Z,10.41
2023-04-17T07:30:58.063Z,10.48
2023-04-17T07:33:25.551Z,10.57
2023-04-17T07:35:53.796Z,10.67
2023-04-17T07:38:21.257Z,10.64
2023-04-17T07:40:48.725Z,10.73
2023-04-17T07:43:16.640Z,10.78
2023-04-17T07:45:44.089Z,10.84
2023-04-17T07:48:12.872Z,10.95
2023-04-17T07:50:40.348Z,10.92
2023-04-17T07:53:08.246Z,10.87
2023-04-17T07:55:35.715Z,10.81
2023-04-17T07:58:03.678Z,10.84
2023-04-17T08:00:31.380Z,10.82
2023-04-17T08:02:59.240Z,10.85
2023-04-17T08:05:28.269Z,10.81
2023-04-17T08:07:55.759Z,10.96
2023-04-17T08:10:23.358Z,11.02
2023-04-17T08:12:51.062Z,11.04
2023-04-17T08:15:18.680Z,11.10
2023-04-17T08:17:46.175Z,10.99
2023-04-17T08:20:14.155Z,10.93
2023-04-17T08:22:44.587Z,10.81
2023-04-17T08:25:13.213Z,10.91
2023-04-17T08:27:41.818Z,10.98
2023-04-17T08:30:13.039Z,11.02
2023-04-17T08:32:43.690Z,11.10
2023-04-17T08:35:12.307Z,11.02
2023-04-17T08:37:40.519Z,11.07
2023-04-17T08:40:12.080Z,11.05
2023-04-17T08:42:41.547Z,11.01
2023-04-17T08:45:11.453Z,10.99
2023-04-17T08:47:39.749Z,10.97
2023-04-17T08:50:09.575Z,10.88
2023-04-17T08:52:40.529Z,10.85
2023-04-17T08:55:10.599Z,10.84
2023-04-17T08:57:54.237Z,10.85
2023-04-17T09:00:25.588Z,10.87
2023-04-17T09:02:54.921Z,10.89
2023-04-17T09:05:23.358Z,10.96
2023-04-17T09:07:51.915Z,10.96
2023-04-17T09:10:20.925Z,10.95
2023-04-17T09:13:00.973Z,10.95
2023-04-17T09:15:28.583Z,10.98
2023-04-17T09:17:56.264Z,11.04
2023-04-17T09:20:23.956Z,11.13
2023-04-17T09:22:59.969Z,11.10
2023-04-17T09:25:29.083Z,11.14
2023-04-17T09:28:04.202Z,11.19
2023-04-17T09:30:37.707Z,11.26
2023-04-17T09:33:06.354Z,11.28
2023-04-17T09:35:39.238Z,11.27
2023-04-17T09:38:07.495Z,11.23
2023-04-17T09:40:40.794Z,11.21
2023-04-17T09:43:10.386Z,11.32
2023-04-17T09:45:42.474Z,11.36
2023-04-17T09:48:11.504Z,11.39
2023-04-17T09:50:39.498Z,11.49
2023-04-17T09:53:08.365Z,11.68
2023-04-17T09:55:37.802Z,11.73
2023-04-17T09:58:08.340Z,11.92
2023-04-17T10:00:37.749Z,12.03
2023-04-17T10:03:05.816Z,12.01
2023-04-17T10:05:33.593Z,12.11
2023-04-17T10:08:01.418Z,12.12
2023-04-17T10:10:31.295Z,12.15
2023-04-17T10:13:01.214Z,12.28
2023-04-17T10:15:30.773Z,12.36
2023-04-17T10:18:20.202Z,12.36
2023-04-17T10:20:48.461Z,12.43
2023-04-17T10:23:27.866Z,12.44
2023-04-17T10:26:40.335Z,12.49
2023-04-17T10:29:07.827Z,12.48
2023-04-17T10:32:17.859Z,12.51
2023-04-17T10:34:46.273Z,12.53
2023-04-17T10:37:15.424Z,12.51
2023-04-17T10:39:51.480Z,12.56
2023-04-17T10:42:20.147Z,12.55
2023-04-17T10:44:48.440Z,12.73
2023-04-17T10:47:20.889Z,12.80
2023-04-17T10:49:50.533Z,12.78
2023-04-17T10:52:51.196Z,12.76
2023-04-17T10:55:22.086Z,12.58
2023-04-17T10:58:00.638Z,12.38
2023-04-17T11:00:33.591Z,12.23
2023-04-17T11:03:03.495Z,12.23
2023-04-17T11:05:32.235Z,12.25
2023-04-17T11:07:59.949Z,12.17
2023-04-17T11:10:27.661Z,12.21
2023-04-17T11:12:56.710Z,12.25
2023-04-17T11:15:33.133Z,12.31
2023-04-17T11:18:03.053Z,12.48
2023-04-17T11:20:33.207Z,12.56
2023-04-17T11:23:05.056Z,12.80
2023-04-17T11:25:35.004Z,12.97
2023-04-17T11:28:04.133Z,13.26
2023-04-17T11:30:33.123Z,13.38
2023-04-17T11:33:02.959Z,13.48
2023-04-17T11:35:32.457Z,13.43
2023-04-17T11:38:14.290Z,13.31
2023-04-17T11:40:46.054Z,13.10
2023-04-17T11:43:14.228Z,12.96
2023-04-17T11:45:43.699Z,12.90
2023-04-17T11:48:13.850Z,12.78
2023-04-17T11:50:42.449Z,12.65
2023-04-17T11:53:10.018Z,12.69
2023-04-17T11:55:37.470Z,12.77
2023-04-17T11:58:07.684Z,12.77
2023-04-17T12:00:37.456Z,12.87
2023-04-17T12:03:36.027Z,12.83
2023-04-17T12:06:06.257Z,12.69
2023-04-17T12:08:43.479Z,12.78
2023-04-17T12:11:18.295Z,12.78
2023-04-17T12:13:46.040Z,12.65
2023-04-17T12:16:13.502Z,12.69
2023-04-17T12:18:42.358Z,12.76
2023-04-17T12:21:09.799Z,12.88
2023-04-17T12:23:37.274Z,12.92
2023-04-17T12:26:04.868Z,12.94
2023-04-17T12:28:32.371Z,12.96
2023-04-17T12:30:59.803Z,12.89
2023-04-17T12:33:27.243Z,12.85
2023-04-17T12:35:56.053Z,12.80
2023-04-17T12:38:24.147Z,12.81
2023-04-17T12:40:51.588Z,12.80
2023-04-17T12:43:19.084Z,12.81
2023-04-17T12:45:46.956Z,12.90
2023-04-17T12:48:15.310Z,12.93
2023-04-17T12:50:43.766Z,12.96
2023-04-17T12:53:13.895Z,12.93
2023-04-17T12:55:43.489Z,12.92
2023-04-17T12:58:12.044Z,12.85
2023-04-17T13:00:40.803Z,12.78
2023-04-17T13:03:08.600Z,12.83
2023-04-17T13:05:36.558Z,12.94
2023-04-17T13:08:04.019Z,12.99
2023-04-17T13:10:34.192Z,12.97
2023-04-17T13:13:02.193Z,13.14
2023-04-17T13:15:29.673Z,13.21
2023-04-17T13:17:57.166Z,13.34
2023-04-17T13:20:24.748Z,13.54
2023-04-17T13:22:52.223Z,13.56
2023-04-17T13:25:19.716Z,13.56
2023-04-17T13:27:48.581Z,13.51
2023-04-17T13:30:16.309Z,13.48
2023-04-17T13:32:43.904Z,13.60
2023-04-17T13:35:13.317Z,13.62
2023-04-17T13:37:41.208Z,13.64
2023-04-17T13:40:10.652Z,13.52
2023-04-17T13:42:38.242Z,13.57
2023-04-17T13:45:08.677Z,13.51
2023-04-17T13:47:36.240Z,13.59
2023-04-17T13:50:03.908Z,13.65
2023-04-17T13:52:31.355Z,13.67
2023-04-17T13:54:58.790Z,13.61
2023-04-17T13:57:26.253Z,13.60
2023-04-17T13:59:53.760Z,13.44
2023-04-17T14:02:22.862Z,13.42
2023-04-17T14:04:50.796Z,13.29
2023-04-17T14:07:18.310Z,13.12
2023-04-17T14:09:45.780Z,12.98
2023-04-17T14:12:16.667Z,13.09
2023-04-17T14:14:44.146Z,13.14
2023-04-17T14:17:11.631Z,13.14
2023-04-17T14:19:40.418Z,13.17
2023-04-17T14:22:07.876Z,13.21
2023-04-17T14:24:35.329Z,13.24
2023-04-17T14:27:02.939Z,13.36
2023-04-17T14:29:30.643Z,13.47
2023-04-17T14:31:58.206Z,13.55
2023-04-17T14:34:25.987Z,13.56
2023-04-17T14:36:57.448Z,13.64
2023-04-17T14:39:25.541Z,13.63
2023-04-17T14:41:53.264Z,13.52
2023-04-17T14:44:21.278Z,13.46
2023-04-17T14:46:48.943Z,13.38
2023-04-17T14:49:16.591Z,13.34
2023-04-17T14:51:44.084Z,13.35
2023-04-17T14:54:12.866Z,13.31
2023-04-17T14:56:40.604Z,13.34
2023-04-17T14:59:08.065Z,13.41
2023-04-17T15:01:35.599Z,13.44
2023-04-17T15:04:03.749Z,13.49
2023-04-17T15:06:31.413Z,13.65
2023-04-17T15:08:59.272Z,13.61
2023-04-17T15:11:28.096Z,13.60
2023-04-17T15:13:55.533Z,13.62
2023-04-17T15:16:23.033Z,13.72
2023-04-17T15:18:51.074Z,13.79
2023-04-17T15:21:18.675Z,13.71
2023-04-17T15:23:46.162Z,13.64
2023-04-17T15:26:14.139Z,13.55
2023-04-17T15:28:42.970Z,13.56
2023-04-17T15:31:10.481Z,13.58
2023-04-17T15:33:38.427Z,13.54
2023-04-17T15:36:05.978Z,13.60
2023-04-17T15:38:33.442Z,13.63
2023-04-17T15:41:00.990Z,13.70
2023-04-17T15:43:28.494Z,13.67
2023-04-17T15:45:58.897Z,13.68
2023-04-17T15:48:27.472Z,13.72
2023-04-17T15:50:55.071Z,13.76
2023-04-17T15:53:22.647Z,13.83
2023-04-17T15:55:50.139Z,13.82
2023-04-17T15:58:17.616Z,13.81
2023-04-17T16:00:45.183Z,13.81
2023-04-17T16:03:14.514Z,13.82
2023-04-17T16:05:42.243Z,13.86
2023-04-17T16:08:09.716Z,13.85
2023-04-17T16:10:37.614Z,13.88
2023-04-17T16:13:05.118Z,13.96
2023-04-17T16:15:32.577Z,14.01
2023-04-17T16:18:00.150Z,14.03
2023-04-17T16:20:29.071Z,13.96
2023-04-17T16:22:56.504Z,13.97
2023-04-17T16:25:24.060Z,13.99
2023-04-17T16:27:51.542Z,13.96
2023-04-17T16:30:19.119Z,13.90
2023-04-17T16:32:48.615Z,13.95
2023-04-17T16:35:16.166Z,14.01
2023-04-17T16:37:44.971Z,13.97
2023-04-17T16:40:12.966Z,14.05
2023-04-17T16:42:41.722Z,14.03
2023-04-17T16:45:09.825Z,13.94
2023-04-17T16:47:38.709Z,13.93
2023-04-17T16:50:09.808Z,13.82
2023-04-17T16:52:40.069Z,13.79
2023-04-17T16:55:10.079Z,13.76
2023-04-17T16:57:38.217Z,13.78
2023-04-17T17:00:07.611Z,13.80
2023-04-17T17:02:35.447Z,13.77
2023-04-17T17:05:02.994Z,13.76
2023-04-17T17:07:30.611Z,13.72
2023-04-17T17:09:58.130Z,13.77
2023-04-17T17:12:27.172Z,13.77
2023-04-17T17:14:54.892Z,13.77
2023-04-17T17:17:22.487Z,13.71
2023-04-17T17:19:50.046Z,13.75
2023-04-17T17:22:17.520Z,13.74
2023-04-17T17:24:44.956Z,13.73
2023-04-17T17:27:12.929Z,13.75
2023-04-17T17:29:41.870Z,13.66
2023-04-17T17:32:09.836Z,13.64
2023-04-17T17:34:37.323Z,13.66
2023-04-17T17:37:04.806Z,13.56
2023-04-17T17:39:32.259Z,13.50
2023-04-17T17:42:02.818Z,13.47
2023-04-17T17:44:30.352Z,13.48
2023-04-17T17:46:59.156Z,13.45
2023-04-17T17:49:26.703Z,13.42
2023-04-17T17:51:54.209Z,13.40
2023-04-17T17:54:59.857Z,13.42
2023-04-17T17:57:33.002Z,13.37
2023-04-17T18:00:11.200Z,13.30
2023-04-17T18:02:40.226Z,13.31
2023-04-17T18:05:08.225Z,13.28
2023-04-17T18:07:35.817Z,13.20
2023-04-17T18:10:03.528Z,13.21
2023-04-17T18:12:31.033Z,13.19
2023-04-17T18:15:00.987Z,13.08
2023-04-17T18:17:28.550Z,13.04
2023-04-17T18:19:57.465Z,13.04
2023-04-17T18:22:25.010Z,12.96
2023-04-17T18:24:53.915Z,12.89
2023-04-17T18:27:21.657Z,12.84
2023-04-17T18:29:49.463Z,12.81
2023-04-17T18:32:17.037Z,12.83
2023-04-17T18:34:48.907Z,12.87
2023-04-17T18:37:18.332Z,12.89
2023-04-17T18:39:45.996Z,12.85
2023-04-17T18:42:13.573Z,12.78
2023-04-17T18:44:41.728Z,12.74
2023-04-17T18:47:09.254Z,12.70
2023-04-17T18:49:36.917Z,12.71
2023-04-17T18:52:05.436Z,12.71
2023-04-17T18:54:34.337Z,12.69
2023-04-17T18:57:01.832Z,12.65
2023-04-17T18:59:30.113Z,12.62
2023-04-17T19:01:57.726Z,12.62
2023-04-17T19:04:25.942Z,12.57
2023-04-17T19:06:53.501Z,12.56
2023-04-17T19:09:21.104Z,12.54
2023-04-17T19:11:50.236Z,12.52
2023-04-17T19:14:17.720Z,12.48
2023-04-17T19:16:47.137Z,12.54
2023-04-17T19:19:15.480Z,12.49
2023-04-17T19:21:43.158Z,12.48
2023-04-17T19:24:10.768Z,12.45
2023-04-17T19:26:38.785Z,12.46
2023-04-17T19:29:07.874Z,12.41
2023-04-17T19:31:35.543Z,12.39
2023-04-17T19:34:03.056Z,12.37
2023-04-17T19:36:30.525Z,12.36
2023-04-17T19:38:59.732Z,12.30
2023-04-17T19:41:28.613Z,12.26
2023-04-17T19:43:57.319Z,12.20
2023-04-17T19:46:27.391Z,12.22
2023-04-17T19:48:55.059Z,12.23
2023-04-17T19:51:22.653Z,12.23
2023-04-17T19:53:50.268Z,12.22
2023-04-17T19:56:17.759Z,12.09
2023-04-17T19:58:45.255Z,12.10
2023-04-17T20:01:12.789Z,12.06
2023-04-17T20:03:43.532Z,12.01
2023-04-17T20:06:11.190Z,12.04
2023-04-17T20:08:38.652Z,11.95
2023-04-17T20:11:11.742Z,11.96
2023-04-17T20:13:39.246Z,11.87
2023-04-17T20:16:07.280Z,11.77
2023-04-17T20:18:35.207Z,11.84
2023-04-17T20:21:05.747Z,11.82
2023-04-17T20:23:33.503Z,11.81
2023-04-17T20:26:00.943Z,11.74
2023-04-17T20:28:29.045Z,11.72
2023-04-17T20:30:56.745Z,11.62
2023-04-17T20:33:24.338Z,11.63
2023-04-17T20:35:51.822Z,11.57
2023-04-17T20:38:20.675Z,11.54
2023-04-17T20:40:48.196Z,11.47
2023-04-17T20:43:16.797Z,11.48
2023-04-17T20:45:44.576Z,11.48
2023-04-17T20:48:12.141Z,11.43
2023-04-17T20:50:39.668Z,11.41
2023-04-17T20:53:07.152Z,11.28
2023-04-17T20:55:37.288Z,11.34
2023-04-17T20:58:04.774Z,11.35
2023-04-17T21:00:32.394Z,11.27
2023-04-17T21:02:59.918Z,11.13
2023-04-17T21:05:27.520Z,11.16
2023-04-17T21:07:57.518Z,11.06
2023-04-17T21:10:25.028Z,11.04
2023-04-17T21:12:53.842Z,10.95
2023-04-17T21:15:21.443Z,10.87
2023-04-17T21:17:48.879Z,10.72
2023-04-17T21:20:16.412Z,10.56
2023-04-17T21:22:43.862Z,10.80
2023-04-17T21:25:11.312Z,10.87
2023-04-17T21:27:38.752Z,10.80
2023-04-17T21:30:10.509Z,10.81
2023-04-17T21:32:38.013Z,10.78
2023-04-17T21:35:06.224Z,10.73
2023-04-17T21:37:33.682Z,10.66
2023-04-17T21:40:01.153Z,10.58
2023-04-17T21:42:28.633Z,10.54
2023-04-17T21:44:56.190Z,10.56
2023-04-17T21:47:24.993Z,10.52
2023-04-17T21:49:52.493Z,10.47
2023-04-17T21:52:19.979Z,10.46
2023-04-17T21:54:47.447Z,10.44
2023-04-17T21:57:14.927Z,10.41
2023-04-17T21:59:42.365Z,10.40
2023-04-17T22:02:09.872Z,10.40
2023-04-17T22:04:38.686Z,10.37
2023-04-17T22:07:08.451Z,10.30
2023-04-17T22:09:35.935Z,10.33
2023-04-17T22:12:11.471Z,10.22
2023-04-17T22:14:38.957Z,10.16
2023-04-17T22:17:06.435Z,10.09
2023-04-17T22:19:33.921Z,10.04
2023-04-17T22:22:02.692Z,10.02
2023-04-17T22:24:30.160Z,10.02
2023-04-17T22:26:57.635Z,9.99
2023-04-17T22:29:25.200Z,9.94
2023-04-17T22:31:52.684Z,9.92
2023-04-17T22:34:20.156Z,9.92
2023-04-17T22:36:47.579Z,9.87
2023-04-17T22:39:16.643Z,9.83
2023-04-17T22:41:44.087Z,9.85
2023-04-17T22:44:11.740Z,9.76
2023-04-17T22:46:39.426Z,9.73
2023-04-17T22:49:07.433Z,9.72
2023-04-17T22:51:34.874Z,9.73
2023-04-17T22:54:11.529Z,9.68
2023-04-17T22:56:44.165Z,9.66
2023-04-17T22:59:11.854Z,9.64
2023-04-17T23:01:39.541Z,9.58
2023-04-17T23:04:06.993Z,9.53
2023-04-17T23:06:34.409Z,9.54
2023-04-17T23:09:01.926Z,9.59
2023-04-17T23:11:31.948Z,9.50
2023-04-17T23:14:01.218Z,9.55
2023-04-17T23:16:31.459Z,9.51
2023-04-17T23:18:59.129Z,9.44
2023-04-17T23:21:26.625Z,9.42
2023-04-17T23:23:54.052Z,9.36
2023-04-17T23:26:21.492Z,9.34
2023-04-17T23:28:48.918Z,9.28
2023-04-17T23:31:17.744Z,9.29
2023-04-17T23:33:45.172Z,9.28
2023-04-17T23:36:13.133Z,9.22
2023-04-17T23:38:40.604Z,9.24
2023-04-17T23:41:08.092Z,9.19
2023-04-17T23:43:35.536Z,9.13
2023-04-17T23:46:02.991Z,9.12
2023-04-17T23:48:31.786Z,9.03
2023-04-17T23:50:59.318Z,9.01
2023-04-17T23:53:26.865Z,8.98
2023-04-17T23:55:54.377Z,8.96
2023-04-17T23:58:21.837Z,8.92
